createdAt,value
2022-08-29T00:00:23.687Z,86.23
2022-08-29T00:02:56.835Z,85.71
2022-08-29T00:05:31.456Z,85.13
2022-08-29T00:08:01.368Z,85.72
2022-08-29T00:10:32.970Z,85.42
2022-08-29T00:13:01.454Z,85.39
2022-08-29T00:15:29.748Z,86.22
2022-08-29T00:17:58.098Z,86.37
2022-08-29T00:20:34.268Z,86.65
2022-08-29T00:23:07.612Z,86.29
2022-08-29T00:25:36.297Z,86.37
2022-08-29T00:28:05.141Z,87.00
2022-08-29T00:30:34.213Z,87.22
2022-08-29T00:33:03.129Z,86.71
2022-08-29T00:35:37.406Z,87.04
2022-08-29T00:38:10.420Z,86.75
2022-08-29T00:40:53.659Z,86.61
2022-08-29T00:43:26.183Z,87.54
2022-08-29T00:46:29.755Z,87.24
2022-08-29T00:49:05.869Z,87.67
2022-08-29T00:51:34.725Z,87.37
2022-08-29T00:54:07.278Z,87.28
2022-08-29T00:56:39.303Z,88.16
2022-08-29T00:59:18.128Z,88.10
2022-08-29T01:01:47.255Z,88.13
2022-08-29T01:04:24.297Z,88.23
2022-08-29T01:06:54.224Z,88.90
2022-08-29T01:09:24.368Z,89.14
2022-08-29T01:12:12.181Z,88.82
2022-08-29T01:14:48.041Z,87.92
2022-08-29T01:17:27.540Z,88.54
2022-08-29T01:20:03.940Z,88.41
2022-08-29T01:22:50.494Z,88.93
2022-08-29T01:25:24.486Z,88.37
2022-08-29T01:28:08.399Z,88.43
2022-08-29T01:30:36.720Z,89.09
2022-08-29T01:33:04.962Z,88.74
2022-08-29T01:35:33.658Z,89.48
2022-08-29T01:38:01.903Z,88.83
2022-08-29T01:40:31.103Z,89.43
2022-08-29T01:42:59.570Z,89.60
2022-08-29T01:45:27.738Z,89.84
2022-08-29T01:47:56.073Z,90.18
2022-08-29T01:50:24.218Z,89.88
2022-08-29T01:52:52.376Z,90.36
2022-08-29T01:55:20.618Z,90.58
2022-08-29T01:57:48.889Z,90.83
2022-08-29T02:00:19.652Z,90.21
2022-08-29T02:02:48.065Z,89.91
2022-08-29T02:05:16.289Z,90.81
2022-08-29T02:07:44.609Z,90.19
2022-08-29T02:10:12.816Z,90.23
2022-08-29T02:12:41.092Z,90.75
2022-08-29T02:15:09.657Z,91.20
2022-08-29T02:17:38.504Z,91.23
2022-08-29T02:20:09.082Z,91.52
2022-08-29T02:22:39.683Z,91.07
2022-08-29T02:25:29.403Z,91.02
2022-08-29T02:27:59.279Z,91.50
2022-08-29T02:30:27.512Z,90.73
2022-08-29T02:32:55.897Z,91.09
2022-08-29T02:35:24.322Z,90.96
2022-08-29T02:37:52.868Z,91.41
2022-08-29T02:40:24.614Z,91.92
2022-08-29T02:43:00.864Z,91.73
2022-08-29T02:45:29.532Z,91.60
2022-08-29T02:47:58.521Z,92.50
2022-08-29T02:50:26.928Z,91.99
2022-08-29T02:52:55.139Z,91.99
2022-08-29T02:55:25.015Z,91.86
2022-08-29T02:57:54.390Z,92.57
2022-08-29T03:00:26.146Z,91.94
2022-08-29T03:02:56.713Z,92.14
2022-08-29T03:05:29.282Z,92.28
2022-08-29T03:07:59.051Z,92.38
2022-08-29T03:10:27.729Z,92.60
2022-08-29T03:12:56.494Z,92.60
2022-08-29T03:15:24.628Z,92.77
2022-08-29T03:17:53.269Z,93.18
2022-08-29T03:20:22.945Z,93.48
2022-08-29T03:22:52.042Z,93.49
2022-08-29T03:25:21.441Z,93.56
2022-08-29T03:27:49.819Z,93.80
2022-08-29T03:30:18.586Z,93.52
2022-08-29T03:32:47.165Z,93.65
2022-08-29T03:35:16.054Z,94.12
2022-08-29T03:37:44.451Z,94.07
2022-08-29T03:40:13.945Z,94.03
2022-08-29T03:42:43.139Z,94.22
2022-08-29T03:45:14.486Z,93.94
2022-08-29T03:47:43.021Z,94.96
2022-08-29T03:50:14.153Z,94.70
2022-08-29T03:52:44.330Z,94.52
2022-08-29T03:55:13.601Z,94.53
2022-08-29T03:57:42.193Z,94.37
2022-08-29T04:00:19.771Z,94.77
2022-08-29T04:02:48.982Z,95.46
2022-08-29T04:05:18.249Z,95.38
2022-08-29T04:07:54.005Z,95.18
2022-08-29T04:10:38.470Z,95.31
2022-08-29T04:13:08.567Z,95.50
2022-08-29T04:15:39.165Z,94.91
2022-08-29T04:18:09.562Z,95.40
2022-08-29T04:20:44.942Z,95.74
2022-08-29T04:23:15.561Z,95.04
2022-08-29T04:25:44.147Z,95.18
2022-08-29T04:28:14.919Z,95.44
2022-08-29T04:30:51.875Z,95.48
2022-08-29T04:33:23.517Z,95.87
2022-08-29T04:35:52.928Z,96.36
2022-08-29T04:38:21.447Z,95.98
2022-08-29T04:40:50.153Z,95.47
2022-08-29T04:43:18.448Z,95.39
2022-08-29T04:45:46.773Z,96.40
2022-08-29T04:48:14.898Z,96.65
2022-08-29T04:50:43.092Z,95.82
2022-08-29T04:53:11.368Z,95.74
2022-08-29T04:55:39.587Z,96.00
2022-08-29T04:58:10.090Z,96.41
2022-08-29T05:00:38.503Z,95.75
2022-08-29T05:03:07.981Z,96.46
2022-08-29T05:05:36.791Z,96.47
2022-08-29T05:08:05.013Z,96.48
2022-08-29T05:10:33.505Z,96.46
2022-08-29T05:13:01.686Z,96.16
2022-08-29T05:15:30.031Z,95.89
2022-08-29T05:17:58.329Z,95.53
2022-08-29T05:20:26.496Z,95.55
2022-08-29T05:22:54.695Z,94.80
2022-08-29T05:25:23.069Z,94.82
2022-08-29T05:27:51.414Z,95.11
2022-08-29T05:30:34.717Z,94.76
2022-08-29T05:33:03.689Z,94.81
2022-08-29T05:35:32.916Z,94.75
2022-08-29T05:38:07.185Z,94.53
2022-08-29T05:40:38.709Z,94.41
2022-08-29T05:43:07.814Z,93.95
2022-08-29T05:45:37.827Z,93.92
2022-08-29T05:48:08.046Z,94.45
2022-08-29T05:50:43.157Z,93.56
2022-08-29T05:53:14.381Z,93.41
2022-08-29T05:55:45.311Z,92.74
2022-08-29T05:58:14.068Z,93.46
2022-08-29T06:00:46.233Z,93.80
2022-08-29T06:03:15.212Z,92.69
2022-08-29T06:05:43.647Z,92.49
2022-08-29T06:08:11.955Z,91.92
2022-08-29T06:10:42.393Z,91.55
2022-08-29T06:13:11.098Z,92.54
2022-08-29T06:15:42.467Z,91.81
2022-08-29T06:18:10.790Z,92.02
2022-08-29T06:20:40.034Z,91.66
2022-08-29T06:23:08.394Z,91.02
2022-08-29T06:25:40.413Z,90.28
2022-08-29T06:28:09.049Z,90.36
2022-08-29T06:30:37.307Z,90.48
2022-08-29T06:33:05.567Z,90.28
2022-08-29T06:35:33.779Z,89.73
2022-08-29T06:38:01.960Z,89.42
2022-08-29T06:40:30.247Z,88.55
2022-08-29T06:42:58.640Z,88.77
2022-08-29T06:45:26.934Z,87.50
2022-08-29T06:47:55.160Z,87.91
2022-08-29T06:50:23.358Z,87.77
2022-08-29T06:52:51.725Z,86.95
2022-08-29T06:55:24.250Z,86.84
2022-08-29T06:57:52.582Z,86.37
2022-08-29T07:00:22.745Z,86.24
2022-08-29T07:02:53.144Z,86.70
2022-08-29T07:05:23.738Z,86.92
2022-08-29T07:07:52.382Z,85.39
2022-08-29T07:10:22.703Z,85.37
2022-08-29T07:12:52.805Z,84.17
2022-08-29T07:15:23.193Z,84.08
2022-08-29T07:17:52.827Z,83.50
2022-08-29T07:20:23.714Z,83.47
2022-08-29T07:22:52.256Z,82.95
2022-08-29T07:25:21.907Z,82.75
2022-08-29T07:27:53.519Z,83.19
2022-08-29T07:30:22.126Z,82.62
2022-08-29T07:32:50.509Z,81.78
2022-08-29T07:35:29.558Z,81.98
2022-08-29T07:38:02.654Z,82.34
2022-08-29T07:40:31.377Z,82.54
2022-08-29T07:42:59.629Z,82.41
2022-08-29T07:45:28.031Z,82.04
2022-08-29T07:47:56.535Z,81.71
2022-08-29T07:50:24.777Z,81.26
2022-08-29T07:52:53.149Z,80.94
2022-08-29T07:55:22.138Z,81.28
2022-08-29T07:57:54.173Z,80.82
2022-08-29T08:00:22.675Z,80.54
2022-08-29T08:02:51.469Z,78.92
2022-08-29T08:05:19.840Z,78.30
2022-08-29T08:07:49.806Z,77.62
2022-08-29T08:10:24.769Z,77.80
2022-08-29T08:12:53.114Z,77.75
2022-08-29T08:15:22.972Z,79.17
2022-08-29T08:17:51.227Z,78.31
2022-08-29T08:20:19.430Z,76.47
2022-08-29T08:22:47.701Z,78.23
2022-08-29T08:25:15.957Z,77.42
2022-08-29T08:27:45.500Z,77.72
2022-08-29T08:30:14.226Z,77.42
2022-08-29T08:32:46.387Z,76.96
2022-08-29T08:35:16.410Z,77.14
2022-08-29T08:37:44.673Z,77.29
2022-08-29T08:40:28.174Z,76.75
2022-08-29T08:43:02.940Z,76.18
2022-08-29T08:45:40.459Z,76.33
2022-08-29T08:48:21.913Z,76.55
2022-08-29T08:51:03.387Z,76.48
2022-08-29T08:53:40.347Z,76.18
2022-08-29T08:56:43.007Z,74.86
2022-08-29T08:59:17.005Z,74.68
2022-08-29T09:02:06.548Z,75.87
2022-08-29T09:04:57.477Z,73.48
2022-08-29T09:07:46.010Z,74.41
2022-08-29T09:11:04.155Z,73.27
2022-08-29T09:14:16.266Z,72.61
2022-08-29T09:16:53.227Z,73.51
2022-08-29T09:19:21.635Z,73.62
2022-08-29T09:21:59.469Z,72.08
2022-08-29T09:25:05.014Z,71.58
2022-08-29T09:27:35.817Z,71.66
2022-08-29T09:30:24.410Z,71.29
2022-08-29T09:33:01.935Z,71.75
2022-08-29T09:35:39.729Z,71.46
2022-08-29T09:38:23.510Z,71.36
2022-08-29T09:40:58.692Z,71.95
2022-08-29T09:43:39.629Z,71.77
2022-08-29T09:46:16.418Z,71.46
2022-08-29T09:48:53.215Z,71.50
2022-08-29T09:51:26.333Z,71.97
2022-08-29T09:54:16.552Z,70.92
2022-08-29T09:56:53.287Z,71.56
2022-08-29T09:59:30.706Z,69.41
2022-08-29T10:02:24.630Z,69.35
2022-08-29T10:05:11.076Z,69.27
2022-08-29T10:07:50.785Z,69.71
2022-08-29T10:10:25.826Z,70.23
2022-08-29T10:13:22.921Z,69.92
2022-08-29T10:16:45.377Z,69.18
2022-08-29T10:19:34.367Z,70.21
2022-08-29T10:25:06.374Z,69.69
2022-08-29T10:27:50.035Z,69.07
2022-08-29T10:30:24.181Z,69.19
2022-08-29T10:33:10.590Z,68.90
2022-08-29T10:35:57.640Z,66.88
2022-08-29T10:38:51.337Z,69.31
2022-08-29T10:41:55.320Z,66.12
2022-08-29T10:44:57.606Z,66.72
2022-08-29T10:47:54.741Z,65.32
2022-08-29T10:50:44.246Z,65.74
2022-08-29T10:53:18.805Z,65.42
2022-08-29T10:56:25.731Z,66.06
2022-08-29T10:59:18.631Z,65.43
2022-08-29T11:02:19.955Z,66.72
2022-08-29T11:04:59.711Z,63.22
2022-08-29T11:07:36.825Z,63.78
2022-08-29T11:10:17.652Z,63.87
2022-08-29T11:12:58.693Z,62.58
2022-08-29T11:15:45.069Z,63.24
2022-08-29T11:18:35.394Z,62.73
2022-08-29T11:21:43.302Z,62.57
2022-08-29T11:24:14.304Z,63.09
2022-08-29T11:26:45.615Z,62.95
2022-08-29T11:29:48.724Z,60.68
2022-08-29T11:32:47.623Z,64.60
2022-08-29T11:35:31.261Z,64.26
2022-08-29T11:38:59.245Z,62.17
2022-08-29T11:41:37.931Z,61.29
2022-08-29T11:44:36.188Z,61.43
2022-08-29T11:47:40.416Z,60.67
2022-08-29T11:50:29.115Z,60.89
2022-08-29T11:53:16.687Z,60.36
2022-08-29T11:56:11.523Z,59.39
2022-08-29T11:58:46.392Z,58.18
2022-08-29T12:01:40.676Z,59.93
2022-08-29T12:04:11.770Z,61.11
2022-08-29T12:07:01.219Z,61.05
2022-08-29T12:09:56.516Z,60.38
2022-08-29T12:12:40.749Z,57.75
2022-08-29T12:15:27.337Z,59.71
2022-08-29T12:18:02.861Z,57.53
2022-08-29T12:20:35.391Z,56.48
2022-08-29T12:23:15.033Z,58.46
2022-08-29T12:25:45.149Z,58.94
2022-08-29T12:28:21.868Z,58.55
2022-08-29T12:31:01.034Z,58.70
2022-08-29T12:33:36.492Z,56.94
2022-08-29T12:36:27.954Z,57.59
2022-08-29T12:39:51.839Z,56.94
2022-08-29T12:42:43.986Z,57.56
2022-08-29T12:45:24.711Z,57.28
2022-08-29T12:47:57.931Z,56.49
2022-08-29T12:50:35.826Z,57.62
2022-08-29T12:53:18.474Z,56.64
2022-08-29T12:56:17.295Z,57.15
2022-08-29T12:58:55.833Z,56.37
2022-08-29T13:01:38.240Z,55.95
2022-08-29T13:04:16.545Z,55.21
2022-08-29T13:07:07.445Z,57.32
2022-08-29T13:09:56.562Z,57.02
2022-08-29T13:12:35.018Z,55.28
2022-08-29T13:15:20.461Z,55.67
2022-08-29T13:17:51.206Z,55.79
2022-08-29T13:20:48.795Z,55.78
2022-08-29T13:23:45.774Z,56.64
2022-08-29T13:26:14.367Z,57.54
2022-08-29T13:29:11.088Z,56.55
2022-08-29T13:31:40.275Z,55.67
2022-08-29T13:34:19.705Z,55.55
2022-08-29T13:36:59.808Z,57.74
2022-08-29T13:39:36.997Z,56.44
2022-08-29T13:42:17.174Z,54.77
2022-08-29T13:44:45.381Z,56.96
2022-08-29T13:47:30.305Z,54.83
2022-08-29T13:50:05.979Z,54.73
2022-08-29T13:52:34.446Z,57.42
2022-08-29T13:55:03.024Z,54.74
2022-08-29T13:57:31.655Z,55.25
2022-08-29T14:00:00.429Z,55.92
2022-08-29T14:02:28.885Z,55.99
2022-08-29T14:04:57.375Z,54.08
2022-08-29T14:07:30.166Z,55.60
2022-08-29T14:09:58.939Z,55.62
2022-08-29T14:12:33.282Z,53.54
2022-08-29T14:15:09.282Z,55.38
2022-08-29T14:17:41.239Z,54.64
2022-08-29T14:20:10.413Z,55.03
2022-08-29T14:22:39.063Z,54.39
2022-08-29T14:25:09.730Z,53.14
2022-08-29T14:27:38.845Z,55.11
2022-08-29T14:30:10.956Z,53.91
2022-08-29T14:32:39.464Z,53.83
2022-08-29T14:35:09.199Z,54.56
2022-08-29T14:37:37.996Z,54.79
2022-08-29T14:40:09.192Z,54.48
2022-08-29T14:42:39.908Z,54.18
2022-08-29T14:45:09.298Z,53.73
2022-08-29T14:47:38.468Z,55.16
2022-08-29T14:50:08.416Z,54.58
2022-08-29T14:52:36.840Z,54.26
2022-08-29T14:55:05.223Z,53.38
2022-08-29T14:57:33.596Z,54.11
2022-08-29T15:00:02.416Z,51.49
2022-08-29T15:02:30.374Z,52.36
2022-08-29T15:04:59.043Z,53.40
2022-08-29T15:07:27.346Z,53.51
2022-08-29T15:09:55.733Z,53.77
2022-08-29T15:12:25.231Z,52.48
2022-08-29T15:14:53.889Z,53.04
2022-08-29T15:17:25.777Z,54.16
2022-08-29T15:22:43.054Z,52.38
2022-08-29T15:25:11.087Z,54.28
2022-08-29T15:27:39.134Z,52.46
2022-08-29T15:30:08.924Z,52.17
2022-08-29T15:32:39.135Z,52.13
2022-08-29T15:35:14.199Z,52.28
2022-08-29T15:37:43.638Z,52.52
2022-08-29T15:40:13.493Z,53.58
2022-08-29T15:42:42.302Z,54.10
2022-08-29T15:45:11.331Z,51.76
2022-08-29T15:47:40.404Z,52.58
2022-08-29T15:50:15.278Z,53.34
2022-08-29T15:52:43.606Z,51.90
2022-08-29T15:55:12.858Z,52.08
2022-08-29T15:57:55.730Z,53.08
2022-08-29T16:00:55.584Z,53.61
2022-08-29T16:03:26.227Z,52.37
2022-08-29T16:05:54.122Z,51.89
2022-08-29T16:08:25.893Z,52.88
2022-08-29T16:10:58.373Z,53.14
2022-08-29T16:13:26.298Z,52.85
2022-08-29T16:15:55.024Z,53.18
2022-08-29T16:18:23.554Z,52.56
2022-08-29T16:20:51.980Z,53.23
2022-08-29T16:23:24.816Z,54.44
2022-08-29T16:25:52.880Z,52.24
2022-08-29T16:28:20.818Z,53.49
2022-08-29T16:30:50.023Z,53.50
2022-08-29T16:33:19.674Z,53.52
2022-08-29T16:35:49.016Z,54.07
2022-08-29T16:38:17.988Z,54.54
2022-08-29T16:40:46.647Z,53.60
2022-08-29T16:43:15.097Z,53.49
2022-08-29T16:45:43.332Z,54.62
2022-08-29T16:48:15.820Z,54.11
2022-08-29T16:50:46.486Z,53.94
2022-08-29T16:53:14.325Z,55.01
2022-08-29T16:55:42.776Z,55.98
2022-08-29T16:58:29.690Z,57.24
2022-08-29T17:00:58.130Z,57.02
2022-08-29T17:03:26.507Z,58.35
2022-08-29T17:05:55.030Z,58.87
2022-08-29T17:08:23.486Z,60.01
2022-08-29T17:10:51.848Z,58.04
2022-08-29T17:13:20.036Z,57.45
2022-08-29T17:15:48.421Z,56.97
2022-08-29T17:18:17.092Z,57.24
2022-08-29T17:20:46.121Z,58.11
2022-08-29T17:23:15.950Z,57.54
2022-08-29T17:25:44.730Z,55.59
2022-08-29T17:28:17.978Z,56.70
2022-08-29T17:30:57.666Z,58.17
2022-08-29T17:33:27.438Z,57.52
2022-08-29T17:35:56.991Z,57.90
2022-08-29T17:38:26.262Z,57.25
2022-08-29T17:41:01.074Z,58.72
2022-08-29T17:43:29.832Z,57.59
2022-08-29T17:45:58.727Z,57.51
2022-08-29T17:48:27.707Z,58.09
2022-08-29T17:50:57.401Z,58.11
2022-08-29T17:53:25.804Z,58.88
2022-08-29T17:55:54.599Z,58.12
2022-08-29T17:58:23.225Z,58.14
2022-08-29T18:00:52.462Z,59.30
2022-08-29T18:03:22.294Z,59.31
2022-08-29T18:05:50.562Z,60.27
2022-08-29T18:08:18.794Z,60.42
2022-08-29T18:10:47.698Z,60.74
2022-08-29T18:13:21.000Z,61.08
2022-08-29T18:15:51.543Z,61.15
2022-08-29T18:18:21.808Z,60.66
2022-08-29T18:20:55.377Z,61.02
2022-08-29T18:23:23.546Z,60.52
2022-08-29T18:25:51.902Z,60.48
2022-08-29T18:28:21.807Z,60.48
2022-08-29T18:30:50.830Z,60.58
2022-08-29T18:33:19.892Z,60.68
2022-08-29T18:35:48.421Z,61.52
2022-08-29T18:38:17.551Z,61.95
2022-08-29T18:40:46.819Z,61.52
2022-08-29T18:43:19.646Z,61.74
2022-08-29T18:45:48.398Z,61.76
2022-08-29T18:48:17.446Z,62.70
2022-08-29T18:50:46.076Z,62.20
2022-08-29T18:53:18.088Z,62.99
2022-08-29T18:55:50.949Z,63.16
2022-08-29T18:58:23.195Z,63.67
2022-08-29T19:00:51.995Z,63.18
2022-08-29T19:03:20.461Z,64.21
2022-08-29T19:05:51.883Z,63.51
2022-08-29T19:08:24.829Z,64.28
2022-08-29T19:10:53.826Z,64.14
2022-08-29T19:13:25.084Z,64.33
2022-08-29T19:16:00.424Z,64.43
2022-08-29T19:18:28.969Z,64.28
2022-08-29T19:21:03.269Z,64.93
2022-08-29T19:23:36.507Z,68.47
2022-08-29T19:26:10.902Z,68.80
2022-08-29T19:31:08.464Z,70.21
2022-08-29T19:33:37.034Z,70.42
2022-08-29T19:36:08.133Z,70.16
2022-08-29T19:38:36.837Z,69.07
2022-08-29T19:41:06.028Z,69.78
2022-08-29T19:43:35.403Z,69.94
2022-08-29T19:46:16.670Z,69.87
2022-08-29T19:48:48.587Z,71.05
2022-08-29T19:51:21.485Z,70.25
2022-08-29T19:53:50.111Z,70.85
2022-08-29T19:56:18.596Z,71.09
2022-08-29T19:58:47.050Z,71.27
2022-08-29T20:01:18.499Z,71.38
2022-08-29T20:03:46.903Z,71.20
2022-08-29T20:06:15.223Z,71.63
2022-08-29T20:08:47.483Z,72.08
2022-08-29T20:11:21.275Z,72.12
2022-08-29T20:13:52.940Z,72.26
2022-08-29T20:16:28.160Z,72.29
2022-08-29T20:18:57.595Z,72.68
2022-08-29T20:21:28.774Z,73.39
2022-08-29T20:23:58.479Z,72.44
2022-08-29T20:26:31.885Z,73.89
2022-08-29T20:29:03.521Z,73.55
2022-08-29T20:31:33.502Z,73.78
2022-08-29T20:34:01.989Z,73.80
2022-08-29T20:36:48.872Z,73.94
2022-08-29T20:39:19.935Z,73.01
2022-08-29T20:41:51.739Z,73.59
2022-08-29T20:44:20.661Z,73.47
2022-08-29T20:46:49.325Z,73.23
2022-08-29T20:49:24.149Z,73.78
2022-08-29T20:51:52.981Z,73.61
2022-08-29T20:54:24.455Z,73.54
2022-08-29T20:56:53.484Z,74.13
2022-08-29T20:59:26.331Z,73.96
2022-08-29T21:01:55.855Z,73.70
2022-08-29T21:04:43.017Z,73.76
2022-08-29T21:07:14.165Z,73.67
2022-08-29T21:09:46.132Z,73.80
2022-08-29T21:12:15.094Z,74.50
2022-08-29T21:14:43.698Z,73.92
2022-08-29T21:17:13.686Z,74.56
2022-08-29T21:19:43.348Z,74.85
2022-08-29T21:22:14.050Z,74.35
2022-08-29T21:24:42.644Z,74.16
2022-08-29T21:27:11.026Z,73.73
2022-08-29T21:29:39.605Z,73.38
2022-08-29T21:32:07.824Z,73.57
2022-08-29T21:34:36.207Z,74.15
2022-08-29T21:37:05.641Z,73.33
2022-08-29T21:39:33.834Z,72.89
2022-08-29T21:42:02.976Z,72.84
2022-08-29T21:44:31.755Z,73.22
2022-08-29T21:47:00.451Z,73.62
2022-08-29T21:49:30.588Z,73.34
2022-08-29T21:51:59.043Z,73.53
2022-08-29T21:54:27.369Z,73.06
2022-08-29T21:56:55.521Z,73.75
2022-08-29T21:59:25.124Z,72.51
2022-08-29T22:01:54.986Z,71.85
2022-08-29T22:04:29.049Z,73.11
2022-08-29T22:06:59.243Z,73.11
2022-08-29T22:09:29.571Z,73.47
2022-08-29T22:11:58.270Z,73.74
2022-08-29T22:14:47.427Z,74.13
2022-08-29T22:17:16.190Z,73.58
2022-08-29T22:19:44.541Z,73.11
2022-08-29T22:22:12.897Z,73.47
2022-08-29T22:24:41.179Z,73.21
2022-08-29T22:27:09.432Z,72.99
2022-08-29T22:29:38.261Z,73.41
2022-08-29T22:32:06.225Z,73.24
2022-08-29T22:34:34.647Z,72.26
2022-08-29T22:37:03.027Z,72.46
2022-08-29T22:39:31.268Z,73.24
2022-08-29T22:41:59.414Z,72.54
2022-08-29T22:45:02.873Z,72.12
2022-08-29T22:47:18.276Z,71.81
2022-08-29T22:49:46.613Z,71.73
2022-08-29T22:52:16.319Z,71.42
2022-08-29T22:54:44.744Z,71.21
2022-08-29T22:57:16.869Z,71.33
2022-08-29T22:59:46.241Z,71.24
2022-08-29T23:02:14.841Z,71.97
2022-08-29T23:04:43.405Z,71.12
2022-08-29T23:07:12.383Z,70.78
2022-08-29T23:09:42.304Z,70.46
2022-08-29T23:12:13.336Z,70.45
2022-08-29T23:14:43.460Z,70.28
2022-08-29T23:17:12.014Z,71.02
2022-08-29T23:19:41.273Z,71.53
2022-08-29T23:22:11.924Z,71.80
2022-08-29T23:24:41.337Z,71.82
2022-08-29T23:27:27.643Z,71.51
2022-08-29T23:29:55.988Z,71.39
2022-08-29T23:32:24.317Z,71.41
2022-08-29T23:34:52.623Z,71.26
2022-08-29T23:37:20.841Z,71.41
2022-08-29T23:39:49.008Z,71.32
2022-08-29T23:42:17.294Z,71.12
2022-08-29T23:44:48.513Z,71.55
2022-08-29T23:47:17.528Z,71.91
2022-08-29T23:49:46.092Z,72.89
2022-08-29T23:52:14.589Z,72.20
2022-08-29T23:54:43.036Z,72.95
2022-08-29T23:57:11.241Z,73.25
2022-08-29T23:59:58.089Z,73.55
